Список аэропортов
Фактическая погода:

23 апреля, 12:20
Температура: +4°C (+1.3*)
Ветер: северный 3 м/с
Давление: *749 мм
Без существ. явл.
Время (МСК)Темп. СВетерВлажностьДавлениеОблачностьОсадки
09:000С, 2 м/с83%997 гПаоблачно
10:00+2С, 2 м/с74%998 гПаоблачно
11:00+4С, 1 м/с68%998 гПаоблачно
12:00+5СЗ, 1 м/с66%998 гПас прояснениямисл. дождь
13:00+5СЗ, 2 м/с65%999 гПамалооблачносл. дождь
14:00+6СЗ, 2 м/с57%999 гПамалооблачно
15:00+6СЗ, 2 м/с53%999 гПамалооблачно
16:00+6СЗ, 3 м/с56%999 гПас прояснениями
17:00+6СЗ, 3 м/с57%1000 гПамалооблачно
18:00+6СЗ, 3 м/с57%1000 гПамалооблачно
19:00+5С, 2 м/с64%1000 гПаясно
20:00+4С, 1 м/с77%1001 гПаясно
21:00+2С, 1 м/с92%1002 гПаясно
22:000С, 1 м/с96%1002 гПас прояснениями
23:00-1С, 1 м/с97%1003 гПаоблачно
24 апреля
00:00-2С, 1 м/с99%1003 гПаоблачно
01:00-3С, 1 м/с99%1003 гПаоблачно
02:00-4СВ, 1 м/с99%1003 гПаоблачно
03:00-4СВ, 1 м/с98%1004 гПаоблачно
04:00-5СВ, 1 м/с98%1004 гПаоблачно
05:00-4СВ, 1 м/с98%1004 гПаоблачно
06:00-4СВ, 1 м/с97%1004 гПаоблачно
07:00-3СВ, 1 м/с98%1004 гПаоблачно
08:00-2В, 2 м/с96%1005 гПаоблачно
09:000В, 1 м/с94%1005 гПаоблачно
10:00+2В, 1 м/с90%1005 гПас прояснениями
11:00+4В, 2 м/с75%1005 гПамалооблачно
12:00+6В, 1 м/с65%1005 гПаоблачно
13:00+6В, 1 м/с57%1005 гПаоблачно
14:00+7В, 2 м/с53%1005 гПаоблачно
15:00+7В, 3 м/с56%1005 гПаоблачно
16:00+7В, 3 м/с64%1005 гПаоблачно
17:00+6ЮВ, 2 м/с62%1005 гПаоблачно
18:00+6В, 2 м/с60%1006 гПаоблачно
19:00+6В, 2 м/с60%1006 гПаоблачно
20:00+4В, 1 м/с68%1006 гПас прояснениями
21:00+2СВ, 1 м/с81%1006 гПаоблачно
22:00+1СВ, 1 м/с89%1007 гПаоблачно
23:000СВ, 2 м/с95%1007 гПаоблачно
25 апреля
00:00-1В, 1 м/с98%1007 гПас прояснениями
01:00-2В, 2 м/с98%1007 гПаоблачно
02:00-2В, 2 м/с96%1007 гПаоблачно
03:00-2В, 2 м/с97%1007 гПаоблачно
04:00-1СВ, 2 м/с98%1007 гПаоблачно
05:00-1СВ, 2 м/с98%1006 гПаоблачносл. снег
06:00-1СВ, 2 м/с98%1006 гПаоблачно
07:00-0В, 2 м/с97%1006 гПас прояснениями
08:00+1В, 3 м/с93%1006 гПас прояснениями
09:00+1В, 3 м/с92%1006 гПаоблачно